createdAt,value
2023-04-21T00:00:12.980Z,12.63
2023-04-21T00:01:16.317Z,13.37
2023-04-21T00:02:17.711Z,13.27
2023-04-21T00:03:23.840Z,13.07
2023-04-21T00:04:25.642Z,13.03
2023-04-21T00:05:27.463Z,13.20
2023-04-21T00:06:31.254Z,13.13
2023-04-21T00:07:34.059Z,13.13
2023-04-21T00:08:40.320Z,13.37
2023-04-21T00:09:42.117Z,12.77
2023-04-21T00:10:43.693Z,13.37
2023-04-21T00:11:45.120Z,13.07
2023-04-21T00:12:46.475Z,13.07
2023-04-21T00:13:47.956Z,13.30
2023-04-21T00:14:49.339Z,12.87
2023-04-21T00:15:51.031Z,13.30
2023-04-21T00:16:53.647Z,13.17
2023-04-21T00:17:55.093Z,12.83
2023-04-21T00:18:56.564Z,13.20
2023-04-21T00:19:58.533Z,13.17
2023-04-21T00:20:59.818Z,12.23
2023-04-21T00:22:01.297Z,11.83
2023-04-21T00:23:03.703Z,12.60
2023-04-21T00:24:05.553Z,13.03
2023-04-21T00:25:07.165Z,12.87
2023-04-21T00:26:08.531Z,12.93
2023-04-21T00:27:11.950Z,13.47
2023-04-21T00:28:13.250Z,13.57
2023-04-21T00:29:14.573Z,12.77
2023-04-21T00:30:15.942Z,12.53
2023-04-21T00:31:17.396Z,13.67
2023-04-21T00:32:18.932Z,13.33
2023-04-21T00:33:20.897Z,13.60
2023-04-21T00:34:22.686Z,13.17
2023-04-21T00:35:23.998Z,13.20
2023-04-21T00:36:28.281Z,12.30
2023-04-21T00:37:29.959Z,12.50
2023-04-21T00:38:31.241Z,12.60
2023-04-21T00:39:32.545Z,12.50
2023-04-21T00:40:33.896Z,13.67
2023-04-21T00:41:36.907Z,12.70
2023-04-21T00:42:38.235Z,12.23
2023-04-21T00:43:59.519Z,12.53
2023-04-21T00:45:01.026Z,12.77
2023-04-21T00:46:02.395Z,11.93
2023-04-21T00:47:03.812Z,11.87
2023-04-21T00:48:05.727Z,12.37
2023-04-21T00:49:07.629Z,13.00
2023-04-21T00:50:10.113Z,12.73
2023-04-21T00:51:12.366Z,12.50
2023-04-21T00:52:14.281Z,12.73
2023-04-21T00:53:17.154Z,12.60
2023-04-21T00:54:19.846Z,13.13
2023-04-21T00:55:21.501Z,13.00
2023-04-21T00:56:22.897Z,12.30
2023-04-21T00:57:24.518Z,12.97
2023-04-21T00:58:25.861Z,12.37
2023-04-21T00:59:27.462Z,12.60
2023-04-21T01:00:29.165Z,13.10
2023-04-21T01:01:34.127Z,12.37
2023-04-21T01:02:36.343Z,12.47
2023-04-21T01:03:38.043Z,13.60
2023-04-21T01:04:39.566Z,12.87
2023-04-21T01:05:41.385Z,13.87
2023-04-21T01:06:43.144Z,12.43
2023-04-21T01:07:44.944Z,13.17
2023-04-21T01:08:46.320Z,12.83
2023-04-21T01:09:50.432Z,13.27
2023-04-21T01:10:51.759Z,12.63
2023-04-21T01:12:03.475Z,13.03
2023-04-21T01:13:05.005Z,13.03
2023-04-21T01:14:06.503Z,12.43
2023-04-21T01:15:08.179Z,12.80
2023-04-21T01:16:16.125Z,12.80
2023-04-21T01:17:18.863Z,12.37
2023-04-21T01:18:22.237Z,13.07
2023-04-21T01:19:24.935Z,12.50
2023-04-21T01:20:26.513Z,13.20
2023-04-21T01:21:28.933Z,12.33
2023-04-21T01:22:31.780Z,13.13
2023-04-21T01:23:33.143Z,13.17
2023-04-21T01:24:36.002Z,12.83
2023-04-21T01:25:37.912Z,12.97
2023-04-21T01:26:39.230Z,12.83
2023-04-21T01:27:40.652Z,12.70
2023-04-21T01:28:42.009Z,13.30
2023-04-21T01:29:46.792Z,12.77
2023-04-21T01:30:48.119Z,12.57
2023-04-21T01:31:49.700Z,12.80
2023-04-21T01:32:51.253Z,13.33
2023-04-21T01:33:52.625Z,13.10
2023-04-21T01:34:54.033Z,12.93
2023-04-21T01:35:55.818Z,12.93
2023-04-21T01:36:57.138Z,13.00
2023-04-21T01:37:58.606Z,12.77
2023-04-21T01:38:59.892Z,12.80
2023-04-21T01:40:04.969Z,14.33
2023-04-21T01:41:08.642Z,12.97
2023-04-21T01:42:10.950Z,13.67
2023-04-21T01:43:12.754Z,13.67
2023-04-21T01:44:15.231Z,13.07
2023-04-21T01:45:16.634Z,13.23
2023-04-21T01:46:21.082Z,13.60
2023-04-21T01:47:23.216Z,12.93
2023-04-21T01:48:24.517Z,13.67
2023-04-21T01:49:26.215Z,13.80
2023-04-21T01:50:27.518Z,12.67
2023-04-21T01:51:28.846Z,13.23
2023-04-21T01:52:30.200Z,13.17
2023-04-21T01:53:31.684Z,12.83
2023-04-21T01:54:33.095Z,13.03
2023-04-21T01:55:34.402Z,12.37
2023-04-21T01:56:35.765Z,12.80
2023-04-21T01:57:37.189Z,12.30
2023-04-21T01:58:38.500Z,13.00
2023-04-21T01:59:39.889Z,12.57
2023-04-21T02:00:41.234Z,12.30
2023-04-21T02:01:43.138Z,12.90
2023-04-21T02:02:44.680Z,12.43
2023-04-21T02:03:48.013Z,13.13
2023-04-21T02:04:49.605Z,12.93
2023-04-21T02:05:50.962Z,12.20
2023-04-21T02:06:52.263Z,12.80
2023-04-21T02:07:53.576Z,12.37
2023-04-21T02:08:57.899Z,12.43
2023-04-21T02:10:02.368Z,12.40
2023-04-21T02:11:03.656Z,13.60
2023-04-21T02:12:05.240Z,12.63
2023-04-21T02:13:06.557Z,12.97
2023-04-21T02:14:08.117Z,12.83
2023-04-21T02:15:09.762Z,13.03
2023-04-21T02:16:14.061Z,13.50
2023-04-21T02:17:16.578Z,13.73
2023-04-21T02:18:18.006Z,13.67
2023-04-21T02:19:19.589Z,13.17
2023-04-21T02:20:21.548Z,13.07
2023-04-21T02:21:23.526Z,13.47
2023-04-21T02:22:24.951Z,13.20
2023-04-21T02:23:26.303Z,13.10
2023-04-21T02:24:29.377Z,13.73
2023-04-21T02:25:30.850Z,12.93
2023-04-21T02:26:32.218Z,13.20
2023-04-21T02:27:35.090Z,13.30
2023-04-21T02:28:36.445Z,13.73
2023-04-21T02:29:37.913Z,13.03
2023-04-21T02:30:42.635Z,13.77
2023-04-21T02:31:58.879Z,13.27
2023-04-21T02:33:02.639Z,13.87
2023-04-21T02:34:04.003Z,13.57
2023-04-21T02:35:05.960Z,13.13
2023-04-21T02:36:07.447Z,13.10
2023-04-21T02:37:08.833Z,13.27
2023-04-21T02:38:10.457Z,13.37
2023-04-21T02:39:11.960Z,13.30
2023-04-21T02:40:13.352Z,13.10
2023-04-21T02:41:14.706Z,13.13
2023-04-21T02:42:16.015Z,12.60
2023-04-21T02:43:17.554Z,13.27
2023-04-21T02:44:18.929Z,13.53
2023-04-21T02:45:20.236Z,14.03
2023-04-21T02:46:21.653Z,14.20
2023-04-21T02:47:23.004Z,13.60
2023-04-21T02:48:24.431Z,13.53
2023-04-21T02:49:26.335Z,13.97
2023-04-21T02:50:27.639Z,13.30
2023-04-21T02:51:29.012Z,13.63
2023-04-21T02:52:30.311Z,13.53
2023-04-21T02:53:31.811Z,12.90
2023-04-21T02:54:33.224Z,13.33
2023-04-21T02:55:34.546Z,13.50
2023-04-21T02:56:37.201Z,12.97
2023-04-21T02:57:38.497Z,13.87
2023-04-21T02:58:41.389Z,13.10
2023-04-21T02:59:42.729Z,13.80
2023-04-21T03:00:44.316Z,14.50
2023-04-21T03:01:47.836Z,14.67
2023-04-21T03:02:49.283Z,15.77
2023-04-21T03:03:51.400Z,14.87
2023-04-21T03:04:53.141Z,16.40
2023-04-21T03:05:58.070Z,16.73
2023-04-21T03:06:59.516Z,17.83
2023-04-21T03:08:00.843Z,17.00
2023-04-21T03:09:02.202Z,17.87
2023-04-21T03:10:03.700Z,17.00
2023-04-21T03:11:05.127Z,17.20
2023-04-21T03:12:06.595Z,15.80
2023-04-21T03:13:08.042Z,17.03
2023-04-21T03:14:09.387Z,16.80
2023-04-21T03:15:11.371Z,16.77
2023-04-21T03:16:13.535Z,16.13
2023-04-21T03:17:14.972Z,16.90
2023-04-21T03:18:16.645Z,16.70
2023-04-21T03:19:18.247Z,16.97
2023-04-21T03:20:19.844Z,16.27
2023-04-21T03:21:22.002Z,16.60
2023-04-21T03:22:23.308Z,17.70
2023-04-21T03:23:24.642Z,17.47
2023-04-21T03:24:26.231Z,17.47
2023-04-21T03:25:27.759Z,17.00
2023-04-21T03:26:29.115Z,18.33
2023-04-21T03:27:30.705Z,17.40
2023-04-21T03:28:32.084Z,19.10
2023-04-21T03:29:33.424Z,19.10
2023-04-21T03:30:34.761Z,18.03
2023-04-21T03:31:36.179Z,19.17
2023-04-21T03:32:37.545Z,19.33
2023-04-21T03:33:38.931Z,20.00
2023-04-21T03:34:40.267Z,19.90
2023-04-21T03:35:41.675Z,19.50
2023-04-21T03:36:43.338Z,18.13
2023-04-21T03:37:45.268Z,19.30
2023-04-21T03:38:46.647Z,19.03
2023-04-21T03:39:48.005Z,19.80
2023-04-21T03:40:49.632Z,19.60
2023-04-21T03:41:51.343Z,19.57
2023-04-21T03:42:53.214Z,19.57
2023-04-21T03:43:54.659Z,20.33
2023-04-21T03:44:55.973Z,20.27
2023-04-21T03:45:57.484Z,21.40
2023-04-21T03:46:59.068Z,20.97
2023-04-21T03:48:00.585Z,21.50
2023-04-21T03:49:03.775Z,20.60
2023-04-21T03:50:05.883Z,21.17
2023-04-21T03:51:07.317Z,20.63
2023-04-21T03:52:08.696Z,21.63
2023-04-21T03:53:09.994Z,22.60
2023-04-21T03:54:11.337Z,21.43
2023-04-21T03:55:12.739Z,21.13
2023-04-21T03:56:14.021Z,21.10
2023-04-21T03:57:15.398Z,20.07
2023-04-21T03:58:17.001Z,19.70
2023-04-21T03:59:18.705Z,19.70
2023-04-21T04:00:21.179Z,18.50
2023-04-21T04:01:23.200Z,18.37
2023-04-21T04:02:24.742Z,19.10
2023-04-21T04:03:26.377Z,18.40
2023-04-21T04:04:27.922Z,18.57
2023-04-21T04:05:29.494Z,18.37
2023-04-21T04:06:32.055Z,17.83
2023-04-21T04:07:33.617Z,16.63
2023-04-21T04:08:34.933Z,17.20
2023-04-21T04:09:36.213Z,15.77
2023-04-21T04:10:37.507Z,15.33
2023-04-21T04:11:38.808Z,16.40
2023-04-21T04:12:40.257Z,15.87
2023-04-21T04:13:41.591Z,15.20
2023-04-21T04:14:42.873Z,15.43
2023-04-21T04:15:44.316Z,15.10
2023-04-21T04:16:45.771Z,15.53
2023-04-21T04:17:47.248Z,15.03
2023-04-21T04:18:49.843Z,15.50
2023-04-21T04:19:51.130Z,15.37
2023-04-21T04:20:52.429Z,15.90
2023-04-21T04:21:53.727Z,16.57
2023-04-21T04:22:55.182Z,15.83
2023-04-21T04:23:56.757Z,15.23
2023-04-21T04:24:59.714Z,15.20
2023-04-21T04:26:04.512Z,15.53
2023-04-21T04:27:06.962Z,15.20
2023-04-21T04:28:09.176Z,15.87
2023-04-21T04:29:10.828Z,15.57
2023-04-21T04:30:13.129Z,14.53
2023-04-21T04:31:14.741Z,14.80
2023-04-21T04:32:16.075Z,14.43
2023-04-21T04:33:17.429Z,14.10
2023-04-21T04:34:19.077Z,14.53
2023-04-21T04:35:20.410Z,14.80
2023-04-21T04:36:21.696Z,13.90
2023-04-21T04:37:23.021Z,14.10
2023-04-21T04:38:24.348Z,13.00
2023-04-21T04:39:26.070Z,13.13
2023-04-21T04:40:28.697Z,13.00
2023-04-21T04:41:30.522Z,13.83
2023-04-21T04:42:33.026Z,13.13
2023-04-21T04:43:36.879Z,13.63
2023-04-21T04:44:38.259Z,13.30
2023-04-21T04:45:39.624Z,13.07
2023-04-21T04:46:41.085Z,12.33
2023-04-21T04:47:42.953Z,13.43
2023-04-21T04:48:44.276Z,13.27
2023-04-21T04:49:45.767Z,13.37
2023-04-21T04:50:47.153Z,12.60
2023-04-21T04:51:48.479Z,13.20
2023-04-21T04:52:50.016Z,13.53
2023-04-21T04:53:51.313Z,13.00
2023-04-21T04:54:52.758Z,13.00
2023-04-21T04:55:54.130Z,13.27
2023-04-21T04:56:56.761Z,13.97
2023-04-21T04:57:58.137Z,13.30
2023-04-21T04:58:59.466Z,14.43
2023-04-21T05:00:00.877Z,13.00
2023-04-21T05:01:10.924Z,13.20
2023-04-21T05:02:12.974Z,13.97
2023-04-21T05:03:14.527Z,13.40
2023-04-21T05:04:17.450Z,13.10
2023-04-21T05:05:19.070Z,13.00
2023-04-21T05:06:20.941Z,13.27
2023-04-21T05:07:22.277Z,13.13
2023-04-21T05:08:23.573Z,13.53
2023-04-21T05:09:25.859Z,13.63
2023-04-21T05:10:27.133Z,12.97
2023-04-21T05:11:29.256Z,13.17
2023-04-21T05:12:32.112Z,13.83
2023-04-21T05:13:33.537Z,13.47
2023-04-21T05:14:34.894Z,13.47
2023-04-21T05:15:36.181Z,13.33
2023-04-21T05:16:37.680Z,13.47
2023-04-21T05:17:39.120Z,13.53
2023-04-21T05:18:40.633Z,13.43
2023-04-21T05:19:41.919Z,14.00
2023-04-21T05:20:43.228Z,13.10
2023-04-21T05:21:44.561Z,13.17
2023-04-21T05:22:45.857Z,12.80
2023-04-21T05:23:47.145Z,13.00
2023-04-21T05:24:48.617Z,13.23
2023-04-21T05:25:49.983Z,13.07
2023-04-21T05:26:51.357Z,13.27
2023-04-21T05:27:53.155Z,13.47
2023-04-21T05:28:54.954Z,13.07
2023-04-21T05:29:56.533Z,12.30
2023-04-21T05:30:58.127Z,13.60
2023-04-21T05:31:59.554Z,13.30
2023-04-21T05:33:00.972Z,13.40
2023-04-21T05:34:02.369Z,12.40
2023-04-21T05:35:04.008Z,12.50
2023-04-21T05:36:09.351Z,13.10
2023-04-21T05:37:11.660Z,12.73
2023-04-21T05:38:13.189Z,13.30
2023-04-21T05:39:14.549Z,12.97
2023-04-21T05:40:15.912Z,12.13
2023-04-21T05:41:17.328Z,12.47
2023-04-21T05:42:18.616Z,12.97
2023-04-21T05:43:19.913Z,13.50
2023-04-21T05:44:21.604Z,13.87
2023-04-21T05:45:23.062Z,13.60
2023-04-21T05:46:24.436Z,13.00
2023-04-21T05:47:25.896Z,13.50
2023-04-21T05:48:28.541Z,12.70
2023-04-21T05:49:29.969Z,13.90
2023-04-21T05:50:34.053Z,13.10
2023-04-21T05:51:35.501Z,13.33
2023-04-21T05:52:37.319Z,14.20
2023-04-21T05:53:39.279Z,13.20
2023-04-21T05:54:40.738Z,13.40
2023-04-21T05:55:42.028Z,13.80
2023-04-21T05:56:43.403Z,13.90
2023-04-21T05:57:44.752Z,14.33
2023-04-21T05:58:46.448Z,12.83
2023-04-21T05:59:48.105Z,13.60
2023-04-21T06:00:50.265Z,14.00
2023-04-21T06:01:51.850Z,13.67
2023-04-21T06:02:53.445Z,14.60
2023-04-21T06:03:58.021Z,14.93
2023-04-21T06:04:59.833Z,13.97
2023-04-21T06:06:02.507Z,14.13
2023-04-21T06:07:08.031Z,14.33
2023-04-21T06:08:09.537Z,13.57
2023-04-21T06:09:11.553Z,14.23
2023-04-21T06:10:13.436Z,14.13
2023-04-21T06:11:14.807Z,13.97
2023-04-21T06:12:16.152Z,14.77
2023-04-21T06:13:17.548Z,13.60
2023-04-21T06:14:19.214Z,13.83
2023-04-21T06:15:23.028Z,14.10
2023-04-21T06:16:24.425Z,17.07
2023-04-21T06:17:25.799Z,15.20
2023-04-21T06:18:27.668Z,14.80
2023-04-21T06:19:29.113Z,15.07
2023-04-21T06:20:30.562Z,14.37
2023-04-21T06:21:32.680Z,13.80
2023-04-21T06:22:34.083Z,13.57
2023-04-21T06:23:35.531Z,13.37
2023-04-21T06:24:37.226Z,14.17
2023-04-21T06:25:39.052Z,14.20
2023-04-21T06:26:40.488Z,14.13
2023-04-21T06:27:41.826Z,14.03
2023-04-21T06:28:43.217Z,13.57
2023-04-21T06:29:44.879Z,15.00
2023-04-21T06:30:46.472Z,14.07
2023-04-21T06:31:48.090Z,14.10
2023-04-21T06:32:51.989Z,13.70
2023-04-21T06:33:56.103Z,14.43
2023-04-21T06:34:57.429Z,14.67
2023-04-21T06:35:59.841Z,15.20
2023-04-21T06:37:02.653Z,14.73
2023-04-21T06:38:04.770Z,15.13
2023-04-21T06:39:06.407Z,15.23
2023-04-21T06:40:08.359Z,15.13
2023-04-21T06:41:09.926Z,15.70
2023-04-21T06:42:11.245Z,15.97
2023-04-21T06:43:17.672Z,15.10
2023-04-21T06:44:19.227Z,15.73
2023-04-21T06:45:23.454Z,15.00
2023-04-21T06:46:24.787Z,15.63
2023-04-21T06:47:26.417Z,16.10
2023-04-21T06:48:29.966Z,15.87
2023-04-21T06:49:34.121Z,15.63
2023-04-21T06:50:35.657Z,15.87
2023-04-21T06:51:37.528Z,15.37
2023-04-21T06:52:39.304Z,14.97
2023-04-21T06:53:40.837Z,15.80
2023-04-21T06:54:42.190Z,15.37
2023-04-21T06:55:46.257Z,16.10
2023-04-21T06:56:47.655Z,16.50
2023-04-21T06:57:48.964Z,15.57
2023-04-21T06:58:50.477Z,16.57
2023-04-21T06:59:51.903Z,16.67
2023-04-21T07:00:53.304Z,16.63
2023-04-21T07:01:54.701Z,18.00
2023-04-21T07:02:56.299Z,18.10
2023-04-21T07:03:57.824Z,17.93
2023-04-21T07:04:59.231Z,16.90
2023-04-21T07:06:00.945Z,17.57
2023-04-21T07:07:03.295Z,16.77
2023-04-21T07:08:04.856Z,16.83
2023-04-21T07:09:06.382Z,17.57
2023-04-21T07:10:07.995Z,16.47
2023-04-21T07:11:09.325Z,17.10
2023-04-21T07:12:10.692Z,17.27
2023-04-21T07:13:12.094Z,16.63
2023-04-21T07:14:13.459Z,17.57
2023-04-21T07:15:14.813Z,18.43
2023-04-21T07:16:16.121Z,17.73
2023-04-21T07:17:17.506Z,17.97
2023-04-21T07:18:18.897Z,17.73
2023-04-21T07:19:20.501Z,17.63
2023-04-21T07:20:22.248Z,17.90
2023-04-21T07:21:23.567Z,18.90
2023-04-21T07:22:24.854Z,19.37
2023-04-21T07:23:26.160Z,19.03
2023-04-21T07:24:27.460Z,17.97
2023-04-21T07:25:28.758Z,18.30
2023-04-21T07:26:30.043Z,18.63
2023-04-21T07:27:31.462Z,18.87
2023-04-21T07:28:32.760Z,18.87
2023-04-21T07:29:34.070Z,19.33
2023-04-21T07:30:35.380Z,19.17
2023-04-21T07:31:36.805Z,20.33
2023-04-21T07:32:38.757Z,20.37
2023-04-21T07:33:40.248Z,19.37
2023-04-21T07:34:41.754Z,19.00
2023-04-21T07:35:43.163Z,20.07
2023-04-21T07:36:44.461Z,19.07
2023-04-21T07:37:45.851Z,20.07
2023-04-21T07:38:47.162Z,19.53
2023-04-21T07:39:48.531Z,19.30
2023-04-21T07:40:49.847Z,19.03
2023-04-21T07:41:51.195Z,19.33
2023-04-21T07:42:52.566Z,19.50
2023-04-21T07:43:53.993Z,19.87
2023-04-21T07:44:56.124Z,20.40
2023-04-21T07:45:57.774Z,20.87
2023-04-21T07:46:59.088Z,20.80
2023-04-21T07:48:00.404Z,21.60
2023-04-21T07:49:17.051Z,20.80
2023-04-21T07:50:18.401Z,21.30
2023-04-21T07:51:19.693Z,21.03
2023-04-21T07:52:21.506Z,20.37
2023-04-21T07:53:22.784Z,19.73
2023-04-21T07:54:24.095Z,19.60
2023-04-21T07:55:25.380Z,19.60
2023-04-21T07:56:26.764Z,20.37
2023-04-21T07:57:28.084Z,20.30
2023-04-21T07:58:29.443Z,20.80
2023-04-21T07:59:30.904Z,21.20
2023-04-21T08:00:32.287Z,21.60
2023-04-21T08:01:33.806Z,21.50
2023-04-21T08:02:35.323Z,21.73
2023-04-21T08:03:36.794Z,21.03
2023-04-21T08:04:38.509Z,20.17
2023-04-21T08:05:41.554Z,21.50
2023-04-21T08:06:43.537Z,23.63
2023-04-21T08:07:45.213Z,23.03
2023-04-21T08:08:46.528Z,21.60
2023-04-21T08:09:47.888Z,22.30
2023-04-21T08:10:49.179Z,21.47
2023-04-21T08:11:50.560Z,22.53
2023-04-21T08:12:52.008Z,21.43
2023-04-21T08:13:53.380Z,23.33
2023-04-21T08:14:57.734Z,22.67
2023-04-21T08:15:59.151Z,22.43
2023-04-21T08:17:00.669Z,22.27
2023-04-21T08:18:02.044Z,22.23
2023-04-21T08:19:03.523Z,21.97
2023-04-21T08:20:05.233Z,22.40
2023-04-21T08:21:06.579Z,21.03
2023-04-21T08:22:07.930Z,21.83
2023-04-21T08:23:09.293Z,21.10
2023-04-21T08:24:10.684Z,21.87
2023-04-21T08:25:12.097Z,20.57
2023-04-21T08:26:13.511Z,21.77
2023-04-21T08:27:14.792Z,21.70
2023-04-21T08:28:16.141Z,20.97
2023-04-21T08:29:17.623Z,22.17
2023-04-21T08:30:19.859Z,21.07
2023-04-21T08:31:21.552Z,21.00
2023-04-21T08:32:26.476Z,21.30
2023-04-21T08:33:27.966Z,22.47
2023-04-21T08:34:29.490Z,21.43
2023-04-21T08:35:31.051Z,21.47
2023-04-21T08:36:32.433Z,21.43
2023-04-21T08:37:35.862Z,21.53
2023-04-21T08:38:37.843Z,22.40
2023-04-21T08:39:39.395Z,21.10
2023-04-21T08:40:41.958Z,20.67
2023-04-21T08:41:43.309Z,20.47
2023-04-21T08:42:45.244Z,19.40
2023-04-21T08:43:46.523Z,20.43
2023-04-21T08:44:47.839Z,19.73
2023-04-21T08:45:49.598Z,18.87
2023-04-21T08:46:51.320Z,18.77
2023-04-21T08:47:53.908Z,18.90
2023-04-21T08:48:55.659Z,19.23
2023-04-21T08:49:57.415Z,20.03
2023-04-21T08:50:58.718Z,18.37
2023-04-21T08:52:00.693Z,18.90
2023-04-21T08:53:02.068Z,18.10
2023-04-21T08:54:03.460Z,18.30
2023-04-21T08:55:06.683Z,18.73
2023-04-21T08:56:11.281Z,19.00
2023-04-21T08:57:15.961Z,17.43
2023-04-21T08:58:17.981Z,15.93
2023-04-21T08:59:19.497Z,17.20
2023-04-21T09:00:21.343Z,17.27
2023-04-21T09:01:23.104Z,16.73
2023-04-21T09:02:24.742Z,16.23
2023-04-21T09:03:27.939Z,16.23
2023-04-21T09:04:30.151Z,17.03
2023-04-21T09:05:32.683Z,16.50
2023-04-21T09:06:43.466Z,17.43
2023-04-21T09:07:44.938Z,17.10
2023-04-21T09:08:58.037Z,18.37
2023-04-21T09:10:02.905Z,18.27
2023-04-21T09:11:04.998Z,18.77
2023-04-21T09:12:06.509Z,17.53
2023-04-21T09:13:08.948Z,17.63
2023-04-21T09:14:11.216Z,18.67
2023-04-21T09:15:12.669Z,18.57
2023-04-21T09:16:18.338Z,19.97
2023-04-21T09:17:22.160Z,19.70
2023-04-21T09:18:24.631Z,18.20
2023-04-21T09:19:29.504Z,18.73
2023-04-21T09:20:31.290Z,18.70
2023-04-21T09:21:32.752Z,20.83
2023-04-21T09:22:34.094Z,19.43
2023-04-21T09:23:42.315Z,19.27
2023-04-21T09:24:47.367Z,18.00
2023-04-21T09:25:48.734Z,18.17
2023-04-21T09:26:53.829Z,18.47
2023-04-21T09:27:56.024Z,17.73
2023-04-21T09:28:57.353Z,16.83
2023-04-21T09:30:07.117Z,16.30
2023-04-21T09:31:17.979Z,17.87
2023-04-21T09:32:19.739Z,18.67
2023-04-21T09:33:30.627Z,17.87
2023-04-21T09:34:41.138Z,16.03
2023-04-21T09:35:42.454Z,16.40
2023-04-21T09:36:45.161Z,15.73
2023-04-21T09:37:46.489Z,14.83
2023-04-21T09:39:03.727Z,14.80
2023-04-21T09:40:17.742Z,15.63
2023-04-21T09:41:19.236Z,15.60
2023-04-21T09:42:27.755Z,14.07
2023-04-21T09:43:29.367Z,14.90
2023-04-21T09:44:36.407Z,14.60
2023-04-21T09:45:44.830Z,15.37
2023-04-21T09:46:48.451Z,15.90
2023-04-21T09:47:53.482Z,16.23
2023-04-21T09:48:55.777Z,16.23
2023-04-21T09:49:58.004Z,15.27
2023-04-21T09:53:11.072Z,15.70
2023-04-21T09:54:28.383Z,16.30
2023-04-21T09:55:30.920Z,14.93
2023-04-21T09:56:33.546Z,14.70
2023-04-21T09:57:37.965Z,14.53
2023-04-21T09:58:52.330Z,14.60
2023-04-21T09:59:59.977Z,14.17
2023-04-21T10:01:01.670Z,15.67
2023-04-21T10:02:07.088Z,14.57
2023-04-21T10:03:11.365Z,14.60
2023-04-21T10:04:13.935Z,14.43
2023-04-21T10:05:15.775Z,14.83
2023-04-21T10:06:17.432Z,14.17
2023-04-21T10:07:18.790Z,14.63
2023-04-21T10:08:20.704Z,14.67
2023-04-21T10:09:23.870Z,14.97
2023-04-21T10:10:27.195Z,13.90
2023-04-21T10:11:28.588Z,14.23
2023-04-21T10:12:29.893Z,13.47
2023-04-21T10:13:31.598Z,13.27
2023-04-21T10:14:32.909Z,14.53
2023-04-21T10:15:35.911Z,13.83
2023-04-21T10:16:40.536Z,13.80
2023-04-21T10:17:43.767Z,14.63
2023-04-21T10:18:45.665Z,13.77
2023-04-21T10:19:53.987Z,13.87
2023-04-21T10:20:56.535Z,13.77
2023-04-21T10:21:57.989Z,14.73
2023-04-21T10:22:59.432Z,14.33
2023-04-21T10:24:00.708Z,13.37
2023-04-21T10:25:02.984Z,13.93
2023-04-21T10:26:06.694Z,13.47
2023-04-21T10:27:11.746Z,13.73
2023-04-21T10:28:17.669Z,14.17
2023-04-21T10:29:28.207Z,13.43
2023-04-21T10:30:29.579Z,12.73
2023-04-21T10:31:31.043Z,12.60
2023-04-21T10:32:42.467Z,13.07
2023-04-21T10:34:04.006Z,12.13
2023-04-21T10:35:08.480Z,13.97
2023-04-21T10:36:14.902Z,13.43
2023-04-21T10:37:19.730Z,13.10
2023-04-21T10:38:40.725Z,12.00
2023-04-21T10:39:43.874Z,14.03
2023-04-21T10:40:45.489Z,12.90
2023-04-21T10:41:46.807Z,12.60
2023-04-21T10:42:49.000Z,13.80
2023-04-21T10:43:50.682Z,12.70
2023-04-21T10:44:53.326Z,12.10
2023-04-21T10:45:55.814Z,12.50
2023-04-21T10:46:58.543Z,12.63
2023-04-21T10:48:02.490Z,12.00
2023-04-21T10:49:04.703Z,11.07
2023-04-21T10:50:15.153Z,11.53
2023-04-21T10:51:16.507Z,10.60
2023-04-21T10:52:19.164Z,11.10
2023-04-21T10:53:25.584Z,10.37
2023-04-21T10:54:31.451Z,11.07
2023-04-21T10:55:32.812Z,11.87
2023-04-21T10:56:34.246Z,11.20
2023-04-21T10:57:35.877Z,10.80
2023-04-21T10:58:38.389Z,10.97
2023-04-21T10:59:40.194Z,10.50
2023-04-21T11:00:41.873Z,10.50
2023-04-21T11:01:43.319Z,10.40
2023-04-21T11:02:45.204Z,9.47
2023-04-21T11:03:46.959Z,8.93
2023-04-21T11:04:52.440Z,10.10
2023-04-21T11:05:53.957Z,9.90
2023-04-21T11:07:06.202Z,9.70
2023-04-21T11:08:12.197Z,9.77
2023-04-21T11:09:15.827Z,9.77
2023-04-21T11:10:17.161Z,10.30
2023-04-21T11:11:21.953Z,9.70
2023-04-21T11:12:26.322Z,11.23
2023-04-21T11:13:33.341Z,10.10
2023-04-21T11:14:36.474Z,9.90
2023-04-21T11:15:38.259Z,11.10
2023-04-21T11:16:42.386Z,10.77
2023-04-21T11:17:45.398Z,10.10
2023-04-21T11:18:46.871Z,10.47
2023-04-21T11:19:50.828Z,9.90
2023-04-21T11:20:53.146Z,10.60
2023-04-21T11:21:54.741Z,10.43
2023-04-21T11:22:56.413Z,10.33
2023-04-21T11:23:57.902Z,10.27
2023-04-21T11:24:59.718Z,10.20
2023-04-21T11:26:01.154Z,10.43
2023-04-21T11:27:02.517Z,10.47
2023-04-21T11:28:04.843Z,10.00
2023-04-21T11:29:07.347Z,9.03
2023-04-21T11:30:09.147Z,9.50
2023-04-21T11:31:10.809Z,9.97
2023-04-21T11:32:12.859Z,9.77
2023-04-21T11:33:14.295Z,8.90
2023-04-21T11:34:16.563Z,10.20
2023-04-21T11:35:17.920Z,10.03
2023-04-21T11:36:21.384Z,9.30
2023-04-21T11:37:29.437Z,9.77
2023-04-21T11:38:36.703Z,9.43
2023-04-21T11:39:39.967Z,8.93
2023-04-21T11:40:47.954Z,9.23
2023-04-21T11:41:50.035Z,9.37
2023-04-21T11:42:51.368Z,10.30
2023-04-21T11:43:52.883Z,9.63
2023-04-21T11:44:55.485Z,9.73
2023-04-21T11:46:11.047Z,9.03
2023-04-21T11:47:16.417Z,9.80
2023-04-21T11:48:19.459Z,9.83
2023-04-21T11:49:24.418Z,9.40
2023-04-21T11:50:35.547Z,9.20
2023-04-21T11:51:38.157Z,8.50
2023-04-21T11:52:41.178Z,8.77
2023-04-21T11:53:42.623Z,9.00
2023-04-21T11:54:46.607Z,8.93
2023-04-21T11:55:48.085Z,9.10
2023-04-21T11:56:50.123Z,8.50
2023-04-21T11:57:51.575Z,8.57
2023-04-21T11:58:53.131Z,9.20
2023-04-21T11:59:54.699Z,9.40
2023-04-21T12:00:56.247Z,9.40
2023-04-21T12:01:57.853Z,9.50
2023-04-21T12:02:59.333Z,9.33
2023-04-21T12:04:03.422Z,9.80
2023-04-21T12:05:05.210Z,9.27
2023-04-21T12:06:07.479Z,9.53
2023-04-21T12:07:09.123Z,8.63
2023-04-21T12:08:14.823Z,8.27
2023-04-21T12:09:16.998Z,9.07
2023-04-21T12:10:19.209Z,9.30
2023-04-21T12:11:20.582Z,9.10
2023-04-21T12:12:22.169Z,8.67
2023-04-21T12:13:23.858Z,8.97
2023-04-21T12:14:26.784Z,9.53
2023-04-21T12:15:29.740Z,8.77
2023-04-21T12:16:31.094Z,8.53
2023-04-21T12:17:39.043Z,8.83
2023-04-21T12:18:40.787Z,8.10
2023-04-21T12:19:42.349Z,8.83
2023-04-21T12:20:50.589Z,9.00
2023-04-21T12:21:56.389Z,8.80
2023-04-21T12:22:57.694Z,7.73
2023-04-21T12:23:59.059Z,8.37
2023-04-21T12:25:00.367Z,8.73
2023-04-21T12:26:01.846Z,9.37
2023-04-21T12:27:03.539Z,9.40
2023-04-21T12:28:07.844Z,9.33
2023-04-21T12:29:09.171Z,9.00
2023-04-21T12:30:10.713Z,9.40
2023-04-21T12:31:12.182Z,10.00
2023-04-21T12:32:13.553Z,9.60
2023-04-21T12:33:15.044Z,9.40
2023-04-21T12:34:16.493Z,9.07
2023-04-21T12:35:17.853Z,9.67
2023-04-21T12:36:19.174Z,10.53
2023-04-21T12:37:20.639Z,10.43
2023-04-21T12:38:22.149Z,10.83
2023-04-21T12:39:23.504Z,10.30
2023-04-21T12:40:24.822Z,9.87
2023-04-21T12:41:26.285Z,10.80
2023-04-21T12:42:27.636Z,10.83
2023-04-21T12:43:29.311Z,10.53
2023-04-21T12:44:30.748Z,11.70
2023-04-21T12:45:32.637Z,11.17
2023-04-21T12:46:34.090Z,11.90
2023-04-21T12:47:37.433Z,11.40
2023-04-21T12:48:38.914Z,10.47
2023-04-21T12:49:40.203Z,11.43
2023-04-21T12:50:41.622Z,10.53
2023-04-21T12:51:43.319Z,11.00
2023-04-21T12:52:44.642Z,10.80
2023-04-21T12:53:46.383Z,10.83
2023-04-21T12:54:47.700Z,10.60
2023-04-21T12:56:00.969Z,10.37
2023-04-21T12:57:06.290Z,12.77
2023-04-21T12:58:07.628Z,13.27
2023-04-21T12:59:10.869Z,11.37
2023-04-21T13:00:12.884Z,11.60
2023-04-21T13:01:15.996Z,11.60
2023-04-21T13:02:17.709Z,11.03
2023-04-21T13:03:19.264Z,11.40
2023-04-21T13:04:21.484Z,11.03
2023-04-21T13:05:23.828Z,12.07
2023-04-21T13:06:26.714Z,10.53
2023-04-21T13:07:31.286Z,11.47
2023-04-21T13:08:32.715Z,10.90
2023-04-21T13:09:34.044Z,11.00
2023-04-21T13:10:35.424Z,11.67
2023-04-21T13:11:36.732Z,11.37
2023-04-21T13:12:38.344Z,11.33
2023-04-21T13:13:39.675Z,11.13
2023-04-21T13:14:41.055Z,11.57
2023-04-21T13:15:42.345Z,11.23
2023-04-21T13:16:43.717Z,11.47
2023-04-21T13:17:45.123Z,11.43
2023-04-21T13:18:47.181Z,11.90
2023-04-21T13:19:48.600Z,11.33
2023-04-21T13:20:50.054Z,12.03
2023-04-21T13:21:54.046Z,11.83
2023-04-21T13:22:55.957Z,11.97
2023-04-21T13:23:57.395Z,12.37
2023-04-21T13:24:58.757Z,11.27
2023-04-21T13:26:00.769Z,12.73
2023-04-21T13:27:02.177Z,11.63
2023-04-21T13:28:03.921Z,12.17